Lantana, FL

3:42 AM EST on December 26, 2014 (GMT -0500)
Lake Clarke Shores - Caribbean Rd. East | Change Station
CLOSE
Current Station
Personal Weather Station
Location: Lake Clarke Shores, FL
Elevation: 16 ft
Nearby Weather Stations

Elev 16 ft 26.63 °N, 80.07 °W | Updated 5 seconds ago

Mostly Cloudy
Mostly Cloudy
66.2 °F
Feels Like 66.2 °F
N
1.1
Wind Variable Wind from NW
Gusts 2.0 mph

Today
High -- | Low -- °F
--% Chance of Precip.
Yesterday
High -- | Low -- °F
Precip. -- in
7:06 AM 5:35 PM
Waxing Crescent, 24% visible
Pressure 30.15 in
Visibility 10.0 miles
Clouds Scattered Clouds 3000 ft
Mostly Cloudy 9500 ft
Dew Point 61 °F
Humidity 83%
Rainfall 0.00 in
Snow Depth Not available.
UV 0 out of 12
Pollen 2.90 out of 12
Air Quality Not available.
Flu Activity Not available.
METAR KPBI 260753Z 33007KT 10SM SCT030 BKN095 18/15 A3015 RMK AO2 SLP210 T01780150

More Conditions Fewer Conditions

Pressure 30.15 in
Visibility 10.0 miles
Clouds Scattered Clouds 3000 ft
Mostly Cloudy 9500 ft
Dew Point 61 °F
Humidity 83%
Rainfall 0.00 in
Snow Depth Not available.
UV 0 out of 12
Pollen 2.90 out of 12
Air Quality Not available.
Flu Activity Not available.
METAR KPBI 260753Z 33007KT 10SM SCT030 BKN095 18/15 A3015 RMK AO2 SLP210 T01780150

More Conditions Fewer Conditions

10-Day Weather Forecast

Almanac

Astronomy

Dec. 26, 2014 Rise Set
Actual Time
Civil Twilight
Nautical Twilight
Astronomical Twilight
Moon
Length of Visible Light
Length of Day
Tomorrow will be .
, % of the Moon is Illuminated

Today's Extremes

State Highs State Lows

Community

WunderPhotos

Upload Photos

1,780,568 photos uploaded!

WunderBlogs® & News

Nearby

Air Quality

  Air Quality AQ Index Pollutant
Not available.

Snow Depth

Station Depth Elevation

Earthquake Activity

City Distance Mag. Time & Date
Minimum magnitude displayed is 2.5.

Coastal Water Temperatures

Place Temperature

Nearby Weather Stations